Time;durP1;ratioP1;P1;durP2;ratioP2;P2;SDS_P1;SDS_P2;PMS_P1;PMS_P2;Temp;Humidity;BMP_temperature;BMP_pressure;BME280_temperature;BME280_humidity;BME280_pressure;Samples;Min_cycle;Max_cycle;Signal;HPM_P1;HPM_P2
2023/05/29 00:01:12;;;;;;;4.55;4.15;;;23.30;99.90;;;;;;5051441;28;20120;-48
2023/05/29 00:03:38;;;;;;;5.00;4.25;;;23.30;99.90;;;;;;5051649;28;20021;-53
2023/05/29 00:06:05;;;;;;;7.10;4.05;;;23.30;99.90;;;;;;5050149;28;20068;-54
2023/05/29 00:08:32;;;;;;;3.70;3.40;;;23.30;99.90;;;;;;5052660;28;20051;-54
2023/05/29 00:10:58;;;;;;;3.92;3.53;;;23.30;99.90;;;;;;5048699;28;20090;-54
2023/05/29 00:13:24;;;;;;;4.10;3.65;;;23.30;99.90;;;;;;5049468;28;20040;-54
2023/05/29 00:15:51;;;;;;;3.95;3.58;;;23.30;99.90;;;;;;5051513;28;20036;-51
2023/05/29 00:18:16;;;;;;;3.90;2.70;;;23.20;99.90;;;;;;5053077;28;20085;-52
2023/05/29 00:20:42;;;;;;;3.67;3.38;;;23.20;99.90;;;;;;5050533;28;20420;-52
2023/05/29 00:23:10;;;;;;;3.65;3.33;;;23.20;99.90;;;;;;5052430;28;20021;-53
2023/05/29 00:25:36;;;;;;;4.20;3.40;;;23.20;99.90;;;;;;5050477;28;20017;-51
2023/05/29 00:28:02;;;;;;;3.80;3.50;;;23.20;99.90;;;;;;5052351;28;20052;-53
2023/05/29 00:30:27;;;;;;;4.28;3.92;;;23.20;99.90;;;;;;5048921;28;20379;-50
2023/05/29 00:32:53;;;;;;;4.55;3.45;;;23.20;99.90;;;;;;5067651;28;20394;-51
2023/05/29 00:35:19;;;;;;;3.90;3.42;;;23.20;99.90;;;;;;5051271;28;20025;-48
2023/05/29 00:37:45;;;;;;;6.35;3.63;;;23.20;99.90;;;;;;5052476;28;20033;-51
2023/05/29 00:40:11;;;;;;;4.38;3.17;;;23.20;99.90;;;;;;5049969;28;20036;-53
2023/05/29 00:42:40;;;;;;;4.03;3.60;;;23.20;99.90;;;;;;5052120;28;20020;-49
2023/05/29 00:45:15;;;;;;;4.43;3.55;;;23.10;99.90;;;;;;5047103;28;20532;-50
2023/05/29 00:47:41;;;;;;;5.38;3.03;;;23.20;99.90;;;;;;5042205;28;20048;-49
2023/05/29 00:50:10;;;;;;;4.07;3.13;;;23.20;99.90;;;;;;5056051;28;20071;-49
2023/05/29 00:52:37;;;;;;;3.50;3.20;;;23.20;99.90;;;;;;5054924;28;20044;-49
2023/05/29 00:55:04;;;;;;;4.07;3.30;;;23.10;99.90;;;;;;5055289;28;20029;-49
2023/05/29 00:57:31;;;;;;;4.05;3.58;;;23.10;99.90;;;;;;5055747;28;20462;-50
2023/05/29 00:59:58;;;;;;;4.35;3.65;;;23.10;99.90;;;;;;5053502;28;20023;-49
2023/05/29 01:02:24;;;;;;;5.50;3.70;;;23.10;99.90;;;;;;5055546;28;20036;-50
2023/05/29 01:04:54;;;;;;;5.53;3.92;;;23.10;99.90;;;;;;5053581;28;20017;-47
2023/05/29 01:07:21;;;;;;;4.40;4.00;;;23.10;99.90;;;;;;5055754;28;20047;-51
2023/05/29 01:09:46;;;;;;;4.15;3.75;;;23.10;99.90;;;;;;5049062;28;20021;-51
2023/05/29 01:12:51;;;;;;;9.32;4.47;;;23.00;99.90;;;;;;5054304;28;20493;-51
2023/05/29 01:15:39;;;;;;;11.25;4.93;;;23.00;1.00;;;;;;5039586;28;20372;-52
2023/05/29 01:18:13;;;;;;;4.75;3.97;;;23.00;1.00;;;;;;5037873;28;20049;-51
2023/05/29 01:20:56;;;;;;;4.47;4.07;;;23.00;1.00;;;;;;5053630;28;20051;-52
2023/05/29 01:23:32;;;;;;;5.65;4.47;;;23.00;1.00;;;;;;5042450;28;20125;-50
2023/05/29 01:26:11;;;;;;;6.10;5.45;;;23.00;1.00;;;;;;5052670;28;20729;-51
2023/05/29 01:29:04;;;;;;;4.95;4.00;;;23.00;1.00;;;;;;5054290;28;20047;-51
2023/05/29 01:31:31;;;;;;;6.68;4.80;;;23.00;1.00;;;;;;5049120;28;20401;-48
2023/05/29 01:34:02;;;;;;;5.07;4.57;;;23.00;1.00;;;;;;5054445;28;20029;-54
2023/05/29 01:36:28;;;;;;;5.93;4.72;;;22.90;1.00;;;;;;5053090;28;20041;-49
2023/05/29 01:38:56;;;;;;;5.60;4.85;;;23.00;1.00;;;;;;5043938;28;20053;-52
2023/05/29 01:41:25;;;;;;;5.72;5.15;;;23.00;1.00;;;;;;5047787;28;20099;-51
2023/05/29 01:43:52;;;;;;;5.78;5.20;;;22.90;1.00;;;;;;5054169;28;20028;-47
2023/05/29 01:46:19;;;;;;;5.75;5.22;;;23.00;1.00;;;;;;5049669;28;20031;-49
2023/05/29 01:48:46;;;;;;;5.28;4.78;;;23.00;1.00;;;;;;5053629;28;20025;-52
2023/05/29 01:51:12;;;;;;;6.07;5.43;;;23.00;1.00;;;;;;5053256;28;20033;-47
2023/05/29 01:53:39;;;;;;;5.88;5.22;;;23.00;1.00;;;;;;5053937;28;20459;-48
2023/05/29 01:56:06;;;;;;;7.82;5.88;;;23.00;1.00;;;;;;5047154;28;20026;-50
2023/05/29 01:58:34;;;;;;;5.53;4.90;;;23.00;1.00;;;;;;5051848;28;20053;-51
2023/05/29 02:01:01;;;;;;;6.20;4.80;;;22.90;1.00;;;;;;5051491;28;20529;-49
2023/05/29 02:03:30;;;;;;;7.35;6.05;;;23.00;1.00;;;;;;5053919;28;20482;-49
2023/05/29 02:06:00;;;;;;;6.07;5.47;;;23.00;1.00;;;;;;5052185;28;20103;-47
2023/05/29 02:08:26;;;;;;;9.55;6.30;;;23.00;1.00;;;;;;5054550;28;20082;-52
2023/05/29 02:10:52;;;;;;;9.63;5.57;;;23.00;1.00;;;;;;5053168;28;20033;-54
2023/05/29 02:13:17;;;;;;;6.90;6.28;;;23.00;1.00;;;;;;5053528;28;20082;-54
2023/05/29 02:15:44;;;;;;;6.80;6.18;;;22.90;1.00;;;;;;5051603;28;20075;-52
2023/05/29 02:18:17;;;;;;;6.53;5.50;;;22.90;1.00;;;;;;5053132;28;20483;-52
2023/05/29 02:20:42;;;;;;;5.85;5.25;;;22.90;1.00;;;;;;5052575;28;20494;-52
2023/05/29 02:23:11;;;;;;;8.48;5.88;;;23.00;1.00;;;;;;5053294;28;20021;-56
2023/05/29 02:25:37;;;;;;;7.32;5.70;;;22.90;1.00;;;;;;5044893;28;20057;-52
2023/05/29 02:28:03;;;;;;;6.60;6.00;;;22.90;1.00;;;;;;5051910;28;20573;-54
2023/05/29 02:30:30;;;;;;;6.10;5.53;;;22.90;1.00;;;;;;5052205;28;20387;-55
2023/05/29 02:32:55;;;;;;;8.18;5.93;;;22.90;1.00;;;;;;5053988;28;20044;-53
2023/05/29 02:35:22;;;;;;;7.32;5.85;;;22.90;1.00;;;;;;5053547;28;20433;-55
2023/05/29 02:37:49;;;;;;;7.00;6.30;;;22.90;1.00;;;;;;5054026;28;20391;-51
2023/05/29 02:40:15;;;;;;;7.63;6.20;;;22.80;1.00;;;;;;5052734;28;20024;-53
2023/05/29 02:42:40;;;;;;;7.22;6.15;;;22.80;1.00;;;;;;5053861;28;20474;-54
2023/05/29 02:45:06;;;;;;;8.43;6.28;;;22.90;1.00;;;;;;5052839;28;20037;-55
2023/05/29 02:47:33;;;;;;;6.55;5.63;;;22.80;1.00;;;;;;5052312;28;20037;-54
2023/05/29 02:49:59;;;;;;;7.35;5.80;;;22.80;1.00;;;;;;5052845;28;20021;-54
2023/05/29 02:52:24;;;;;;;6.00;5.40;;;22.90;1.00;;;;;;5051678;28;20090;-53
2023/05/29 02:54:50;;;;;;;6.80;6.03;;;22.80;1.00;;;;;;5050383;28;20532;-52
2023/05/29 02:57:16;;;;;;;6.03;5.43;;;22.80;1.00;;;;;;5052604;28;20017;-52
2023/05/29 02:59:44;;;;;;;7.18;6.15;;;22.80;1.00;;;;;;5053827;28;20386;-55
2023/05/29 03:02:09;;;;;;;6.82;6.13;;;22.80;1.00;;;;;;5051217;28;20020;-54
2023/05/29 03:04:35;;;;;;;6.40;5.80;;;22.80;1.00;;;;;;5052816;28;20033;-53
2023/05/29 03:07:00;;;;;;;7.32;6.15;;;22.80;1.00;;;;;;5051444;28;20021;-53
2023/05/29 03:09:26;;;;;;;7.20;5.22;;;22.80;1.00;;;;;;5053126;28;20459;-53
2023/05/29 03:11:52;;;;;;;7.22;5.57;;;22.80;1.00;;;;;;5049500;28;20040;-52
2023/05/29 03:14:18;;;;;;;6.15;5.53;;;22.80;1.00;;;;;;5052795;28;20040;-50
2023/05/29 03:16:45;;;;;;;6.53;5.85;;;22.80;1.00;;;;;;5052008;28;20028;-54
2023/05/29 03:19:11;;;;;;;7.32;5.63;;;22.80;1.00;;;;;;5050969;28;20399;-53
2023/05/29 03:21:37;;;;;;;6.35;5.20;;;22.80;1.00;;;;;;5049680;28;20037;-54
2023/05/29 03:24:02;;;;;;;7.32;5.93;;;22.80;1.00;;;;;;5051882;28;20112;-52
2023/05/29 03:26:29;;;;;;;7.70;5.10;;;22.80;1.00;;;;;;5050902;28;20483;-54
2023/05/29 03:28:54;;;;;;;5.82;5.28;;;22.70;1.00;;;;;;5053131;28;20123;-49
2023/05/29 03:31:20;;;;;;;6.18;5.40;;;22.70;1.00;;;;;;5050137;28;20104;-52
2023/05/29 03:33:47;;;;;;;7.07;5.88;;;22.60;1.00;;;;;;5051756;28;20074;-49
2023/05/29 03:36:12;;;;;;;6.50;5.88;;;22.70;1.00;;;;;;5050845;28;20049;-53
2023/05/29 03:38:38;;;;;;;6.28;5.65;;;22.70;1.00;;;;;;5052707;28;20076;-53
2023/05/29 03:41:04;;;;;;;6.15;5.43;;;22.70;1.00;;;;;;5050850;28;20022;-53
2023/05/29 03:43:29;;;;;;;6.50;5.07;;;22.70;1.00;;;;;;5049211;28;20029;-54
2023/05/29 03:45:55;;;;;;;8.52;7.03;;;22.60;1.00;;;;;;5045131;28;20021;-52
2023/05/29 03:48:27;;;;;;;8.95;6.25;;;22.60;1.00;;;;;;5051701;28;20072;-52
2023/05/29 03:50:52;;;;;;;8.27;6.05;;;22.60;1.00;;;;;;5046602;28;20021;-52
2023/05/29 03:53:21;;;;;;;6.72;5.68;;;22.60;1.00;;;;;;5052693;28;20021;-54
2023/05/29 03:59:28;;;;;;;6.95;5.28;;;22.50;1.00;;;;;;5049257;28;20046;-50
2023/05/29 04:01:54;;;;;;;8.48;6.15;;;22.50;1.00;;;;;;5051447;28;20033;-48
2023/05/29 04:04:19;;;;;;;6.32;5.00;;;22.50;1.00;;;;;;5050763;28;20021;-48
2023/05/29 04:06:45;;;;;;;6.05;5.45;;;22.50;1.00;;;;;;5051372;28;20074;-47
2023/05/29 04:09:11;;;;;;;7.15;6.43;;;22.50;1.00;;;;;;5052901;28;20040;-50
2023/05/29 04:11:38;;;;;;;7.03;6.32;;;22.60;1.00;;;;;;5050239;28;20033;-48
2023/05/29 04:14:04;;;;;;;7.20;5.90;;;22.50;1.00;;;;;;5052452;28;20102;-54
2023/05/29 04:16:30;;;;;;;8.85;6.03;;;22.50;1.00;;;;;;5050530;28;20153;-52
2023/05/29 04:18:55;;;;;;;6.18;5.32;;;22.50;1.00;;;;;;5052588;28;20059;-51
2023/05/29 04:21:21;;;;;;;8.43;5.65;;;22.50;1.00;;;;;;5050012;28;20025;-48
2023/05/29 04:23:47;;;;;;;6.35;5.75;;;22.50;1.00;;;;;;5055722;28;20033;-50
2023/05/29 04:26:13;;;;;;;8.60;6.35;;;22.50;1.00;;;;;;5053973;28;20057;-53
2023/05/29 04:28:39;;;;;;;7.68;6.88;;;22.40;1.00;;;;;;5054452;28;20123;-53
2023/05/29 04:31:05;;;;;;;7.63;6.82;;;22.40;1.00;;;;;;5054522;28;20045;-50
2023/05/29 04:33:32;;;;;;;8.32;6.57;;;22.40;1.00;;;;;;5054018;28;20518;-52
2023/05/29 04:36:00;;;;;;;13.02;7.47;;;22.20;1.00;;;;;;5054584;28;20474;-56
2023/05/29 04:38:27;;;;;;;9.45;7.93;;;21.50;99.90;;;;;;5054107;28;20041;-53
2023/05/29 04:40:58;;;;;;;10.52;8.85;;;20.30;99.90;;;;;;5055935;28;20021;-48
2023/05/29 04:43:26;;;;;;;11.85;8.40;;;20.30;99.90;;;;;;5048810;28;20033;-52
2023/05/29 04:45:52;;;;;;;9.05;8.13;;;20.20;99.90;;;;;;5055772;28;20029;-52
2023/05/29 04:48:18;;;;;;;18.42;9.18;;;20.10;99.90;;;;;;5051817;28;20037;-52
2023/05/29 04:50:44;;;;;;;19.73;9.55;;;19.90;99.90;;;;;;5053255;28;20036;-50
2023/05/29 04:53:10;;;;;;;14.55;8.23;;;19.90;99.90;;;;;;5055143;28;20029;-51
2023/05/29 04:55:36;;;;;;;19.67;9.50;;;20.00;99.90;;;;;;5047767;28;20025;-53
2023/05/29 04:58:02;;;;;;;25.95;12.00;;;19.70;99.90;;;;;;5041536;28;20105;-49
2023/05/29 05:00:28;;;;;;;9.70;7.50;;;19.80;99.90;;;;;;5054348;28;20067;-50
2023/05/29 05:02:54;;;;;;;13.90;8.63;;;19.90;99.90;;;;;;5054463;28;20032;-51
2023/05/29 05:05:20;;;;;;;12.00;8.90;;;19.80;99.90;;;;;;5053657;28;20399;-50
2023/05/29 05:07:45;;;;;;;13.52;8.82;;;19.60;99.90;;;;;;5048240;28;20412;-49
2023/05/29 05:10:11;;;;;;;12.50;8.70;;;19.60;99.90;;;;;;5040636;28;20025;-50
2023/05/29 05:12:37;;;;;;;12.70;9.00;;;19.40;99.90;;;;;;5055554;28;20033;-50
2023/05/29 05:15:04;;;;;;;11.82;8.55;;;19.30;99.90;;;;;;5051961;28;20067;-55
2023/05/29 05:17:30;;;;;;;13.55;8.13;;;20.00;99.90;;;;;;5052625;28;20398;-48
2023/05/29 05:19:55;;;;;;;11.98;9.68;;;20.20;99.90;;;;;;5053768;28;20129;-49
2023/05/29 05:22:21;;;;;;;15.40;10.77;;;19.90;99.90;;;;;;5055296;28;20021;-47
2023/05/29 05:24:47;;;;;;;18.58;11.15;;;20.20;99.90;;;;;;5052994;28;20037;-48
2023/05/29 05:27:13;;;;;;;14.75;9.55;;;20.50;99.90;;;;;;5054178;28;20059;-49
2023/05/29 05:29:39;;;;;;;12.05;10.10;;;20.30;99.90;;;;;;5051172;28;20159;-50
2023/05/29 05:32:06;;;;;;;14.02;9.48;;;19.80;99.90;;;;;;5053724;28;20025;-52
2023/05/29 05:34:32;;;;;;;14.57;9.85;;;20.00;99.90;;;;;;5050191;28;20068;-47
2023/05/29 05:36:57;;;;;;;14.77;10.02;;;19.80;99.90;;;;;;5046370;28;20068;-51
2023/05/29 05:39:29;;;;;;;14.30;9.65;;;20.00;99.90;;;;;;5054073;28;20053;-49
2023/05/29 05:41:55;;;;;;;13.80;10.07;;;19.90;99.90;;;;;;5054850;28;20033;-52
2023/05/29 05:44:20;;;;;;;15.65;11.63;;;20.20;99.90;;;;;;5054297;28;20136;-49
2023/05/29 05:47:14;;;;;;;13.95;11.07;;;20.40;99.90;;;;;;5046195;28;20032;-53
2023/05/29 05:49:40;;;;;;;12.90;10.73;;;20.20;99.90;;;;;;5048186;28;20047;-55
2023/05/29 05:52:06;;;;;;;15.23;12.35;;;20.10;99.90;;;;;;5054439;28;20107;-54
2023/05/29 05:54:32;;;;;;;14.73;11.55;;;20.20;99.90;;;;;;5050539;28;20021;-54
2023/05/29 05:56:57;;;;;;;14.70;11.55;;;20.40;99.90;;;;;;5052860;28;20033;-51
2023/05/29 05:59:23;;;;;;;16.45;13.32;;;20.30;99.90;;;;;;5054582;28;20037;-55
2023/05/29 06:01:48;;;;;;;15.60;10.77;;;20.40;99.90;;;;;;5053282;28;20021;-51
2023/05/29 06:04:14;;;;;;;14.13;11.65;;;20.40;99.90;;;;;;5054536;28;20041;-53
2023/05/29 06:06:40;;;;;;;16.00;11.18;;;20.30;99.90;;;;;;5050931;28;20052;-54
2023/05/29 06:09:06;;;;;;;14.55;11.98;;;20.30;99.90;;;;;;5054586;28;20044;-52
2023/05/29 06:11:32;;;;;;;16.77;11.48;;;20.30;99.90;;;;;;5050036;28;20029;-51
2023/05/29 06:13:58;;;;;;;14.32;11.15;;;20.30;99.90;;;;;;5054560;28;20025;-52
2023/05/29 06:16:24;;;;;;;14.70;11.63;;;20.20;99.90;;;;;;5052028;28;20540;-53
2023/05/29 06:18:49;;;;;;;17.70;13.02;;;20.10;99.90;;;;;;5054338;28;20029;-47
2023/05/29 06:21:16;;;;;;;12.95;11.40;;;20.00;99.90;;;;;;5053505;28;20050;-50
2023/05/29 06:23:42;;;;;;;14.73;11.90;;;20.10;99.90;;;;;;5049653;28;20029;-52
2023/05/29 06:26:07;;;;;;;15.13;11.45;;;19.90;99.90;;;;;;5051649;28;20032;-50
2023/05/29 06:28:33;;;;;;;16.38;10.70;;;19.80;99.90;;;;;;5054186;28;20473;-52
2023/05/29 06:30:58;;;;;;;14.73;11.30;;;19.70;99.90;;;;;;5052968;28;20021;-54
2023/05/29 06:33:24;;;;;;;15.43;12.00;;;19.50;99.90;;;;;;5051646;28;20033;-53
2023/05/29 06:35:50;;;;;;;13.35;10.77;;;19.60;99.90;;;;;;5053840;28;20025;-62
2023/05/29 06:38:17;;;;;;;12.63;10.57;;;19.60;99.90;;;;;;5048405;28;20076;-50
2023/05/29 06:40:43;;;;;;;11.48;10.05;;;19.80;99.90;;;;;;5036571;28;20026;-50
2023/05/29 06:43:11;;;;;;;17.10;12.65;;;19.80;99.90;;;;;;5053868;28;20017;-66
2023/05/29 06:45:37;;;;;;;15.23;11.57;;;19.90;99.90;;;;;;5050809;28;20145;-51
2023/05/29 06:48:03;;;;;;;12.68;11.32;;;19.90;99.90;;;;;;5053289;28;20037;-48
2023/05/29 06:50:28;;;;;;;19.50;12.15;;;19.70;99.90;;;;;;5050002;28;20498;-50
2023/05/29 06:52:54;;;;;;;15.73;11.57;;;19.80;99.90;;;;;;5051985;28;20501;-50
2023/05/29 06:55:20;;;;;;;17.85;12.63;;;19.90;99.90;;;;;;5053838;28;20025;-49
2023/05/29 06:57:46;;;;;;;16.95;11.95;;;19.90;99.90;;;;;;5051292;28;20029;-49
2023/05/29 07:00:15;;;;;;;15.90;13.00;;;20.00;99.90;;;;;;5049861;28;20032;-51
2023/05/29 07:02:40;;;;;;;15.68;12.25;;;20.00;99.90;;;;;;5052178;28;20055;-48
2023/05/29 07:05:06;;;;;;;15.77;12.68;;;20.10;99.90;;;;;;5053028;28;20104;-50
2023/05/29 07:07:32;;;;;;;15.55;11.52;;;20.00;99.90;;;;;;5052665;28;20051;-53
2023/05/29 07:09:57;;;;;;;17.00;13.35;;;20.00;99.90;;;;;;5051960;28;20202;-50
2023/05/29 07:12:23;;;;;;;29.23;14.60;;;20.20;99.90;;;;;;5047416;28;20124;-48
2023/05/29 07:14:49;;;;;;;19.58;14.45;;;20.30;99.90;;;;;;5049808;28;20021;-49
2023/05/29 07:17:15;;;;;;;17.48;14.60;;;20.40;99.90;;;;;;5051500;28;20115;-48
2023/05/29 07:19:41;;;;;;;25.33;18.88;;;20.50;99.90;;;;;;5046261;28;20564;-48
2023/05/29 07:22:07;;;;;;;17.15;14.98;;;20.50;99.90;;;;;;5051801;28;20075;-48
2023/05/29 07:24:32;;;;;;;17.73;15.40;;;20.60;99.90;;;;;;5054274;28;20478;-48
2023/05/29 07:26:58;;;;;;;17.48;15.73;;;20.70;99.90;;;;;;5051672;28;20040;-49
2023/05/29 07:29:24;;;;;;;18.63;14.82;;;20.60;99.90;;;;;;5055413;28;20545;-49
2023/05/29 07:31:50;;;;;;;18.35;15.05;;;20.50;99.90;;;;;;5048864;28;20409;-49
2023/05/29 07:34:16;;;;;;;19.15;16.73;;;20.70;99.90;;;;;;5053061;28;20017;-50
2023/05/29 07:37:00;;;;;;;20.88;15.55;;;20.90;99.90;;;;;;5048395;28;20028;-49
2023/05/29 07:39:26;;;;;;;19.35;15.63;;;21.10;99.90;;;;;;5048913;28;20124;-52
2023/05/29 07:41:52;;;;;;;18.65;16.70;;;21.20;99.90;;;;;;5056482;28;20555;-49
2023/05/29 07:44:52;;;;;;;17.00;15.23;;;21.20;35.50;;;;;;5055674;28;20066;-53
2023/05/29 07:47:17;;;;;;;20.00;14.93;;;21.20;1.00;;;;;;5051953;28;20431;-48
2023/05/29 07:49:43;;;;;;;20.42;15.10;;;21.20;1.00;;;;;;5053728;28;20059;-52
2023/05/29 07:52:09;;;;;;;18.33;14.13;;;21.10;1.00;;;;;;5054019;28;20152;-52
2023/05/29 07:54:34;;;;;;;18.27;14.63;;;21.30;1.00;;;;;;5052883;28;20083;-52
2023/05/29 07:57:02;;;;;;;16.20;14.52;;;21.40;1.00;;;;;;5053332;28;20044;-51
2023/05/29 07:59:53;;;;;;;18.17;14.40;;;21.50;1.00;;;;;;5056034;28;20035;-51
2023/05/29 08:02:20;;;;;;;18.20;14.15;;;21.60;1.00;;;;;;5052247;28;20035;-50
2023/05/29 08:04:46;;;;;;;16.42;13.40;;;21.70;1.00;;;;;;5055773;28;20079;-51
2023/05/29 08:07:12;;;;;;;15.30;13.68;;;21.90;1.00;;;;;;5054577;28;20495;-49
2023/05/29 08:09:38;;;;;;;19.95;14.93;;;21.80;1.00;;;;;;5056634;28;20491;-50
2023/05/29 08:12:05;;;;;;;16.98;13.98;;;21.80;1.00;;;;;;5052639;28;20028;-48
2023/05/29 08:14:31;;;;;;;15.25;13.52;;;21.90;1.00;;;;;;5055899;28;20017;-50
2023/05/29 08:16:58;;;;;;;14.55;12.32;;;22.00;1.00;;;;;;5056449;28;20521;-51
2023/05/29 08:19:24;;;;;;;13.15;11.80;;;22.00;1.00;;;;;;5049950;28;20039;-52
2023/05/29 08:21:50;;;;;;;16.00;11.90;;;22.00;1.00;;;;;;5053451;28;20037;-49
2023/05/29 08:24:16;;;;;;;15.77;11.75;;;22.00;1.00;;;;;;5053613;28;20036;-50
2023/05/29 08:26:43;;;;;;;14.35;11.52;;;22.20;1.00;;;;;;5056663;28;20029;-49
2023/05/29 08:29:09;;;;;;;13.55;11.30;;;22.20;1.00;;;;;;5055031;28;20402;-48
2023/05/29 08:31:35;;;;;;;13.18;10.68;;;22.30;1.00;;;;;;5054961;28;20037;-49
2023/05/29 08:34:01;;;;;;;14.43;11.60;;;22.30;1.00;;;;;;5053992;28;20524;-55
2023/05/29 08:36:27;;;;;;;13.75;12.38;;;22.30;1.00;;;;;;5050818;28;20018;-54
2023/05/29 08:38:53;;;;;;;15.80;12.35;;;22.30;1.00;;;;;;5051585;28;20045;-54
2023/05/29 08:41:29;;;;;;;12.88;11.15;;;22.40;1.00;;;;;;5054480;28;20048;-54
2023/05/29 08:43:55;;;;;;;15.20;12.93;;;22.40;1.00;;;;;;5056181;28;20100;-54
2023/05/29 08:46:21;;;;;;;14.15;12.65;;;22.50;1.00;;;;;;5054966;28;20383;-54
2023/05/29 08:48:51;;;;;;;14.65;13.15;;;22.60;1.00;;;;;;5054177;28;20497;-53
2023/05/29 08:51:21;;;;;;;15.93;13.07;;;22.50;1.00;;;;;;5049739;28;20033;-53
2023/05/29 08:53:47;;;;;;;14.57;13.07;;;22.60;1.00;;;;;;5044094;28;20025;-54
2023/05/29 08:56:13;;;;;;;15.30;13.15;;;22.60;1.00;;;;;;5052609;28;20372;-50
2023/05/29 08:58:39;;;;;;;15.73;13.35;;;22.60;1.00;;;;;;5042188;28;20085;-51
2023/05/29 09:01:24;;;;;;;14.90;12.38;;;22.60;1.00;;;;;;5054756;28;20029;-49
2023/05/29 09:03:50;;;;;;;15.57;13.93;;;22.60;1.00;;;;;;5041545;28;20120;-50
2023/05/29 09:06:17;;;;;;;15.02;13.02;;;22.60;1.00;;;;;;5054323;28;20537;-54
2023/05/29 09:08:43;;;;;;;14.80;13.30;;;22.70;1.00;;;;;;5055065;28;20441;-55
2023/05/29 09:11:08;;;;;;;16.05;13.07;;;22.80;1.00;;;;;;5053748;28;20010;-49
2023/05/29 09:13:35;;;;;;;15.48;12.93;;;22.80;1.00;;;;;;5054656;28;20075;-48
2023/05/29 09:16:03;;;;;;;16.23;14.45;;;22.80;1.00;;;;;;5049047;28;20013;-50
2023/05/29 09:18:32;;;;;;;14.15;12.77;;;22.80;1.00;;;;;;5048078;28;20029;-53
2023/05/29 09:20:58;;;;;;;15.40;13.35;;;22.90;1.00;;;;;;5054311;28;20020;-49
2023/05/29 09:23:25;;;;;;;15.57;14.07;;;22.90;1.00;;;;;;5054254;28;20040;-51
2023/05/29 09:25:53;;;;;;;14.98;13.48;;;23.00;1.00;;;;;;5053182;28;20420;-47
2023/05/29 09:28:20;;;;;;;19.35;14.68;;;23.00;1.00;;;;;;5055464;28;20183;-54
2023/05/29 09:30:47;;;;;;;16.17;14.48;;;23.00;1.00;;;;;;5052657;28;20025;-51
2023/05/29 09:33:14;;;;;;;15.00;13.15;;;23.10;1.00;;;;;;5046970;28;20068;-51
2023/05/29 09:35:44;;;;;;;17.63;14.50;;;23.10;1.00;;;;;;5052802;28;20021;-52
2023/05/29 09:38:11;;;;;;;17.40;14.18;;;23.10;1.00;;;;;;5053052;28;20041;-53
2023/05/29 09:40:39;;;;;;;15.57;13.43;;;23.10;1.00;;;;;;5068383;28;20037;-49
2023/05/29 09:43:18;;;;;;;17.42;15.52;;;23.20;1.00;;;;;;5054498;28;20027;-54
2023/05/29 09:45:45;;;;;;;16.83;14.05;;;23.10;1.00;;;;;;5052759;28;20045;-50
2023/05/29 09:48:16;;;;;;;16.85;15.05;;;23.20;1.00;;;;;;5054827;28;20048;-54
2023/05/29 09:50:47;;;;;;;16.92;14.20;;;23.20;1.00;;;;;;5051798;28;20021;-53
2023/05/29 09:53:21;;;;;;;16.70;14.73;;;23.30;1.00;;;;;;5052188;28;20021;-55
2023/05/29 09:55:50;;;;;;;15.80;14.30;;;23.30;1.00;;;;;;5045346;28;20025;-51
2023/05/29 09:58:17;;;;;;;17.27;15.48;;;23.30;1.00;;;;;;5054662;28;20052;-53
2023/05/29 10:00:43;;;;;;;16.02;13.32;;;23.40;1.00;;;;;;5053788;28;20027;-55
2023/05/29 10:03:11;;;;;;;15.32;13.82;;;23.50;1.00;;;;;;5054494;28;20103;-50
2023/05/29 10:05:38;;;;;;;14.07;12.63;;;23.70;1.00;;;;;;5053819;28;20414;-53
2023/05/29 10:08:08;;;;;;;14.45;12.98;;;23.80;1.00;;;;;;5052546;28;20466;-49
2023/05/29 10:10:35;;;;;;;14.63;13.20;;;23.90;1.00;;;;;;5051463;28;20457;-49
2023/05/29 10:13:05;;;;;;;15.77;13.18;;;23.90;1.00;;;;;;5054335;28;20070;-49
2023/05/29 10:15:33;;;;;;;18.30;13.82;;;23.90;1.00;;;;;;5052511;28;20087;-52
2023/05/29 10:18:04;;;;;;;17.15;13.88;;;24.00;1.00;;;;;;5053264;28;20395;-56
2023/05/29 10:20:33;;;;;;;14.23;12.73;;;24.10;1.00;;;;;;5038305;28;20036;-48
2023/05/29 10:23:01;;;;;;;16.23;13.82;;;24.30;1.00;;;;;;5047166;28;20036;-51
2023/05/29 10:25:30;;;;;;;15.43;13.88;;;24.20;1.00;;;;;;5053435;28;20013;-52
2023/05/29 10:27:58;;;;;;;16.52;14.45;;;24.10;1.00;;;;;;5051178;28;20437;-55
2023/05/29 10:30:34;;;;;;;15.95;14.23;;;24.10;1.00;;;;;;5052137;28;20025;-49
2023/05/29 10:33:06;;;;;;;14.88;13.27;;;24.20;1.00;;;;;;5054321;28;20098;-50
2023/05/29 10:35:48;;;;;;;14.07;12.27;;;24.30;1.00;;;;;;5048675;28;20013;-53
2023/05/29 10:38:18;;;;;;;17.60;14.68;;;24.30;1.00;;;;;;5050839;28;20132;-51
2023/05/29 10:40:44;;;;;;;18.52;14.20;;;24.40;1.00;;;;;;5049373;28;20067;-52
2023/05/29 10:43:33;;;;;;;16.77;14.93;;;24.50;1.00;;;;;;5052769;28;20021;-52
2023/05/29 10:46:02;;;;;;;17.17;15.00;;;24.40;1.00;;;;;;5039936;28;20052;-49
2023/05/29 10:48:40;;;;;;;14.88;13.40;;;24.30;1.00;;;;;;5051217;28;20072;-50
2023/05/29 10:51:07;;;;;;;16.30;14.52;;;24.30;1.00;;;;;;5047842;28;20064;-48
2023/05/29 10:53:33;;;;;;;16.88;14.68;;;24.40;1.00;;;;;;5051297;28;20439;-49
2023/05/29 10:56:00;;;;;;;20.42;15.65;;;24.40;1.00;;;;;;5048820;28;20108;-50
2023/05/29 10:58:27;;;;;;;16.48;14.18;;;24.50;1.00;;;;;;5050724;28;20090;-49
2023/05/29 11:00:55;;;;;;;15.25;13.63;;;24.50;1.00;;;;;;5053620;28;20470;-51
2023/05/29 11:03:22;;;;;;;16.77;14.93;;;24.40;1.00;;;;;;5052338;28;20528;-55
2023/05/29 11:06:04;;;;;;;15.50;13.90;;;24.40;1.00;;;;;;5051414;28;20037;-52
2023/05/29 11:08:51;;;;;;;16.30;13.82;;;24.40;1.00;;;;;;5052032;28;20083;-51
2023/05/29 11:11:43;;;;;;;15.15;13.57;;;24.40;1.00;;;;;;5050571;28;20043;-54
2023/05/29 11:14:08;;;;;;;16.30;13.60;;;24.40;1.00;;;;;;5044102;28;20065;-51
2023/05/29 11:16:34;;;;;;;18.83;15.25;;;24.60;1.00;;;;;;5050330;28;20051;-54
2023/05/29 11:19:05;;;;;;;17.48;15.60;;;25.00;1.00;;;;;;5053491;28;20025;-53
2023/05/29 11:21:53;;;;;;;16.83;13.95;;;25.20;1.00;;;;;;5054721;28;20025;-51
2023/05/29 11:24:25;;;;;;;17.58;15.88;;;25.50;1.00;;;;;;5055470;28;20039;-55
2023/05/29 11:26:53;;;;;;;17.10;15.30;;;25.80;1.00;;;;;;5056099;28;20036;-55
2023/05/29 11:29:23;;;;;;;17.52;15.82;;;26.00;1.00;;;;;;5049798;28;20041;-55
2023/05/29 11:32:03;;;;;;;18.42;14.55;;;26.30;1.00;;;;;;5050877;28;20033;-54
2023/05/29 11:34:30;;;;;;;14.88;13.35;;;26.80;1.00;;;;;;5050439;28;20052;-54
2023/05/29 11:37:02;;;;;;;14.55;12.77;;;27.00;1.00;;;;;;5053730;28;20075;-55
2023/05/29 11:39:29;;;;;;;14.38;12.88;;;27.40;1.00;;;;;;5051188;28;20052;-51
2023/05/29 11:41:55;;;;;;;14.13;12.73;;;27.80;1.00;;;;;;5051792;28;20542;-50
2023/05/29 11:44:24;;;;;;;16.58;14.23;;;28.30;99.90;;;;;;5055430;28;20020;-53
2023/05/29 11:50:22;;;;;;;18.85;13.00;;;30.00;99.90;;;;;;5051595;28;20095;-54
2023/05/29 11:52:48;;;;;;;14.82;13.32;;;31.80;99.90;;;;;;5050375;28;20045;-55
2023/05/29 11:55:14;;;;;;;15.13;13.55;;;32.70;99.90;;;;;;5053830;28;20063;-53
2023/05/29 11:57:40;;;;;;;13.88;12.32;;;32.90;99.90;;;;;;5047907;28;20413;-53
2023/05/29 12:00:09;;;;;;;13.60;11.88;;;33.20;99.90;;;;;;5056086;28;20037;-49
2023/05/29 12:02:36;;;;;;;15.25;13.50;;;33.50;99.90;;;;;;5046279;28;20036;-53
2023/05/29 12:05:07;;;;;;;13.85;12.52;;;33.60;99.90;;;;;;5053420;28;20025;-52
2023/05/29 12:07:34;;;;;;;16.80;14.57;;;33.70;99.90;;;;;;5050468;28;20025;-55
2023/05/29 12:10:14;;;;;;;14.07;12.50;;;34.40;99.90;;;;;;5050069;28;20025;-55
2023/05/29 12:12:43;;;;;;;12.02;10.88;;;36.30;99.90;;;;;;5051841;28;20036;-57
2023/05/29 12:15:09;;;;;;;13.75;12.35;;;36.70;99.90;;;;;;5051525;28;20429;-54
2023/05/29 12:17:36;;;;;;;15.82;13.68;;;33.90;99.90;;;;;;5052565;28;20379;-53
2023/05/29 12:20:08;;;;;;;13.90;12.50;;;31.80;99.90;;;;;;5054464;28;20364;-55
2023/05/29 12:22:35;;;;;;;13.15;11.68;;;30.70;99.90;;;;;;5050741;28;20475;-53
2023/05/29 12:25:07;;;;;;;15.65;13.00;;;30.90;99.90;;;;;;5047985;28;20036;-55
2023/05/29 12:27:37;;;;;;;13.07;11.77;;;31.40;99.90;;;;;;5049822;28;20029;-50
2023/05/29 12:30:05;;;;;;;13.18;11.85;;;30.10;99.90;;;;;;5047428;28;20393;-52
2023/05/29 12:32:41;;;;;;;13.35;11.90;;;29.30;99.90;;;;;;5051892;28;20029;-49
2023/05/29 12:35:15;;;;;;;13.02;11.73;;;31.50;99.90;;;;;;5053345;28;20431;-55
2023/05/29 12:37:51;;;;;;;12.48;10.98;;;32.90;99.90;;;;;;5051408;28;20027;-56
2023/05/29 12:40:17;;;;;;;11.48;10.00;;;31.60;99.90;;;;;;5041850;28;20041;-49
2023/05/29 12:42:47;;;;;;;13.40;11.95;;;30.50;99.90;;;;;;5048705;28;20025;-51
2023/05/29 12:45:14;;;;;;;12.77;10.73;;;29.70;99.90;;;;;;5053538;28;20029;-53
2023/05/29 12:47:51;;;;;;;10.95;9.85;;;29.00;99.90;;;;;;5054313;28;20043;-52
2023/05/29 12:51:02;;;;;;;10.82;9.63;;;28.60;99.90;;;;;;5050580;28;20041;-51
2023/05/29 12:53:29;;;;;;;13.70;10.07;;;28.20;99.90;;;;;;5040825;28;20037;-51